Terminal Aerodrome Forecast
Issued by NWS

Home | Current Version | Previous Version | Text Only | Print | Product List | Glossary On
Versions: 1 2 3 4 5 6 7 8 9 10 11 12 13 14 15 16 17 18 19 20
000
FTUS41 KGYX 120800 AAB
TAFHIE
TAF AMD
KHIE 120841Z 1209/1306 00000KT P6SM SCT250
     FM121500 25005KT P6SM SCT050 BKN250
     FM122300 00000KT P6SM SCT050 BKN100=

USA.gov is the U.S. government's official web portal to all federal, state and local government web resources and services.